createdAt,value
2023-02-19T00:01:25.585Z,4.28
2023-02-19T00:04:00.328Z,4.47
2023-02-19T00:06:28.371Z,4.18
2023-02-19T00:08:55.718Z,4.55
2023-02-19T00:11:25.330Z,6.47
2023-02-19T00:13:53.801Z,3.70
2023-02-19T00:16:26.674Z,4.88
2023-02-19T00:18:55.900Z,3.97
2023-02-19T00:21:23.898Z,4.38
2023-02-19T00:23:52.290Z,4.40
2023-02-19T00:26:19.146Z,4.43
2023-02-19T00:28:49.809Z,4.07
2023-02-19T00:31:20.615Z,5.88
2023-02-19T00:33:50.945Z,4.00
2023-02-19T00:36:17.936Z,3.85
2023-02-19T00:38:44.925Z,3.35
2023-02-19T00:41:19.320Z,3.97
2023-02-19T00:43:52.079Z,5.72
2023-02-19T00:46:26.084Z,4.07
2023-02-19T00:48:53.480Z,3.50
2023-02-19T00:51:22.604Z,4.55
2023-02-19T00:53:49.292Z,3.53
2023-02-19T00:56:16.050Z,3.95
2023-02-19T00:58:42.907Z,4.82
2023-02-19T01:01:11.807Z,4.38
2023-02-19T01:03:39.951Z,3.47
2023-02-19T01:06:08.359Z,4.38
2023-02-19T01:08:35.444Z,4.20
2023-02-19T01:11:03.594Z,4.35
2023-02-19T01:13:30.686Z,4.63
2023-02-19T01:16:05.880Z,3.85
2023-02-19T01:18:33.266Z,5.68
2023-02-19T01:21:00.307Z,3.15
2023-02-19T01:23:27.017Z,3.42
2023-02-19T01:25:53.632Z,6.53
2023-02-19T01:28:20.270Z,8.48
2023-02-19T01:30:46.877Z,4.20
2023-02-19T01:33:13.570Z,3.42
2023-02-19T01:35:40.590Z,4.07
2023-02-19T01:38:08.375Z,3.40
2023-02-19T01:40:35.842Z,3.83
2023-02-19T01:43:03.760Z,3.22
2023-02-19T01:45:35.519Z,4.60
2023-02-19T01:48:25.784Z,4.05
2023-02-19T01:50:54.742Z,6.07
2023-02-19T01:53:26.312Z,4.18
2023-02-19T01:55:56.181Z,4.43
2023-02-19T01:58:26.069Z,3.90
2023-02-19T02:00:52.965Z,5.00
2023-02-19T02:03:20.769Z,5.47
2023-02-19T02:06:05.403Z,3.88
2023-02-19T02:08:52.192Z,4.55
2023-02-19T02:11:21.093Z,4.13
2023-02-19T02:13:49.114Z,4.95
2023-02-19T02:16:39.712Z,4.55
2023-02-19T02:19:41.875Z,4.05
2023-02-19T02:22:25.749Z,3.58
2023-02-19T02:25:14.486Z,4.07
2023-02-19T02:28:01.394Z,4.93
2023-02-19T02:30:54.899Z,4.35
2023-02-19T02:33:53.170Z,4.95
2023-02-19T02:36:36.438Z,3.63
2023-02-19T02:39:07.314Z,5.07
2023-02-19T02:41:45.318Z,3.50
2023-02-19T02:44:13.490Z,5.25
2023-02-19T02:46:44.761Z,4.32
2023-02-19T02:49:21.922Z,4.22
2023-02-19T02:51:54.083Z,3.60
2023-02-19T02:54:49.878Z,3.78
2023-02-19T02:57:19.570Z,3.25
2023-02-19T02:59:51.163Z,4.20
2023-02-19T03:02:28.559Z,3.08
2023-02-19T03:05:38.237Z,3.17
2023-02-19T03:08:26.725Z,4.00
2023-02-19T03:11:22.008Z,3.47
2023-02-19T03:14:14.739Z,3.88
2023-02-19T03:17:04.310Z,3.88
2023-02-19T03:19:35.149Z,4.05
2023-02-19T03:22:10.033Z,3.05
2023-02-19T03:25:02.069Z,3.17
2023-02-19T03:27:32.474Z,3.05
2023-02-19T03:30:05.444Z,5.32
2023-02-19T03:32:40.124Z,3.35
2023-02-19T03:35:11.827Z,3.33
2023-02-19T03:37:44.911Z,3.95
2023-02-19T03:40:13.292Z,3.83
2023-02-19T03:42:50.547Z,2.83
2023-02-19T03:45:54.879Z,2.65
2023-02-19T03:48:35.388Z,2.08
2023-02-19T03:51:25.721Z,2.67
2023-02-19T03:54:11.480Z,4.18
2023-02-19T03:56:52.294Z,3.28
2023-02-19T03:59:34.331Z,3.35
2023-02-19T04:02:09.840Z,3.03
2023-02-19T04:04:39.637Z,2.85
2023-02-19T04:07:06.643Z,2.50
2023-02-19T04:09:39.747Z,2.40
2023-02-19T04:12:13.192Z,3.42
2023-02-19T04:14:46.282Z,2.40
2023-02-19T04:17:39.060Z,2.65
2023-02-19T04:20:08.730Z,2.47
2023-02-19T04:22:37.327Z,3.03
2023-02-19T04:25:04.220Z,2.97
2023-02-19T04:27:30.858Z,2.50
2023-02-19T04:29:57.476Z,2.70
2023-02-19T04:32:24.191Z,3.10
2023-02-19T04:34:52.827Z,2.97
2023-02-19T04:37:20.671Z,2.63
2023-02-19T04:39:47.297Z,3.58
2023-02-19T04:42:14.038Z,2.92
2023-02-19T04:44:40.703Z,2.20
2023-02-19T04:47:07.498Z,2.42
2023-02-19T04:49:34.134Z,2.42
2023-02-19T04:52:00.787Z,1.98
2023-02-19T04:54:27.460Z,1.75
2023-02-19T04:56:54.318Z,3.10
2023-02-19T04:59:20.934Z,1.98
2023-02-19T05:01:47.669Z,2.40
2023-02-19T05:04:14.449Z,3.10
2023-02-19T05:06:41.178Z,2.80
2023-02-19T05:09:07.829Z,3.85
2023-02-19T05:11:34.606Z,1.42
2023-02-19T05:14:01.438Z,1.98
2023-02-19T05:16:28.159Z,3.00
2023-02-19T05:18:54.844Z,2.45
2023-02-19T05:21:21.700Z,2.83
2023-02-19T05:23:48.397Z,2.80
2023-02-19T05:26:19.764Z,1.90
2023-02-19T05:28:48.340Z,3.55
2023-02-19T05:31:15.729Z,2.38
2023-02-19T05:33:44.210Z,2.47
2023-02-19T05:36:13.660Z,5.55
2023-02-19T05:38:41.501Z,2.55
2023-02-19T05:41:09.517Z,1.13
2023-02-19T05:43:37.151Z,1.23
2023-02-19T05:46:03.907Z,1.88
2023-02-19T05:48:30.591Z,1.85
2023-02-19T05:51:02.954Z,1.25
2023-02-19T05:55:56.220Z,1.70
2023-02-19T05:58:23.078Z,1.23
2023-02-19T06:00:50.161Z,1.60
2023-02-19T06:03:16.809Z,0.82
2023-02-19T06:05:43.494Z,1.98
2023-02-19T06:08:13.192Z,1.25
2023-02-19T06:10:42.783Z,1.55
2023-02-19T06:13:10.333Z,1.35
2023-02-19T06:15:38.085Z,0.77
2023-02-19T06:18:04.839Z,2.67
2023-02-19T06:20:31.554Z,0.98
2023-02-19T06:22:58.320Z,1.33
2023-02-19T06:25:24.990Z,1.23
2023-02-19T06:27:51.648Z,0.95
2023-02-19T06:30:18.389Z,1.17
2023-02-19T06:32:45.113Z,2.55
2023-02-19T06:35:11.781Z,1.52
2023-02-19T06:37:38.446Z,1.30
2023-02-19T06:40:05.516Z,1.15
2023-02-19T06:42:33.246Z,1.48
2023-02-19T06:44:59.952Z,1.38
2023-02-19T06:47:26.622Z,0.95
2023-02-19T06:49:53.335Z,0.88
2023-02-19T06:52:20.046Z,1.05
2023-02-19T06:54:46.689Z,0.47
2023-02-19T06:57:13.462Z,1.30
2023-02-19T06:59:40.129Z,0.65
2023-02-19T07:02:07.334Z,1.75
2023-02-19T07:04:33.997Z,1.10
2023-02-19T07:07:00.667Z,1.00
2023-02-19T07:09:28.588Z,0.38
2023-02-19T07:11:55.332Z,0.30
2023-02-19T07:14:22.054Z,0.38
2023-02-19T07:16:49.026Z,0.30
2023-02-19T07:19:16.280Z,0.57
2023-02-19T07:21:43.254Z,0.40
2023-02-19T07:24:10.319Z,1.02
2023-02-19T07:26:37.035Z,1.30
2023-02-19T07:29:04.425Z,0.65
2023-02-19T07:31:31.146Z,1.23
2023-02-19T07:33:57.921Z,0.60
2023-02-19T07:36:25.247Z,1.10
2023-02-19T07:38:56.735Z,0.63
2023-02-19T07:41:24.895Z,0.93
2023-02-19T07:43:51.907Z,1.35
2023-02-19T07:46:18.590Z,0.68
2023-02-19T07:48:45.503Z,1.75
2023-02-19T07:51:19.121Z,1.60
2023-02-19T07:53:47.277Z,2.22
2023-02-19T07:56:14.295Z,2.63
2023-02-19T07:58:41.213Z,1.25
2023-02-19T08:01:15.033Z,1.40
2023-02-19T08:03:42.952Z,1.63
2023-02-19T08:06:11.259Z,1.60
2023-02-19T08:08:39.192Z,2.10
2023-02-19T08:11:24.926Z,2.25
2023-02-19T08:13:53.117Z,1.15
2023-02-19T08:16:33.079Z,1.27
2023-02-19T08:19:04.108Z,2.08
2023-02-19T08:21:32.508Z,1.85
2023-02-19T08:24:00.111Z,3.65
2023-02-19T08:26:26.875Z,2.22
2023-02-19T08:28:53.534Z,2.08
2023-02-19T08:31:20.233Z,2.22
2023-02-19T08:33:47.000Z,2.25
2023-02-19T08:36:13.740Z,1.65
2023-02-19T08:38:40.419Z,1.38
2023-02-19T08:41:09.730Z,1.52
2023-02-19T08:43:37.377Z,2.00
2023-02-19T08:46:04.801Z,3.03
2023-02-19T08:48:31.537Z,1.92
2023-02-19T08:51:07.086Z,3.70
2023-02-19T08:53:35.498Z,2.85
2023-02-19T08:56:10.317Z,1.42
2023-02-19T08:58:37.975Z,0.90
2023-02-19T09:01:18.344Z,1.13
2023-02-19T09:03:45.544Z,1.80
2023-02-19T09:06:17.856Z,1.30
2023-02-19T09:11:11.358Z,1.55
2023-02-19T09:13:38.137Z,1.60
2023-02-19T09:16:05.535Z,3.22
2023-02-19T09:18:32.300Z,1.73
2023-02-19T09:21:04.731Z,1.77
2023-02-19T09:23:35.726Z,1.40
2023-02-19T09:26:06.827Z,3.25
2023-02-19T09:28:33.730Z,1.33
2023-02-19T09:31:06.109Z,1.10
2023-02-19T09:33:33.401Z,1.17
2023-02-19T09:36:00.784Z,1.92
2023-02-19T09:38:29.433Z,1.45
2023-02-19T09:40:57.832Z,1.60
2023-02-19T09:43:28.010Z,1.60
2023-02-19T09:46:03.011Z,4.55
2023-02-19T09:48:29.923Z,2.50
2023-02-19T09:50:58.888Z,1.80
2023-02-19T09:53:29.421Z,3.25
2023-02-19T09:55:56.707Z,1.98
2023-02-19T09:58:30.100Z,1.23
2023-02-19T10:01:00.276Z,3.30
2023-02-19T10:03:35.112Z,1.77
2023-02-19T10:06:24.092Z,1.70
2023-02-19T10:09:18.766Z,1.85
2023-02-19T10:11:47.021Z,1.92
2023-02-19T10:14:29.351Z,1.92
2023-02-19T10:17:01.200Z,1.52
2023-02-19T10:19:27.983Z,1.42
2023-02-19T10:21:56.766Z,1.48
2023-02-19T10:24:28.785Z,2.85
2023-02-19T10:26:56.288Z,1.75
2023-02-19T10:29:24.749Z,1.20
2023-02-19T10:32:17.298Z,0.98
2023-02-19T10:34:44.232Z,1.75
2023-02-19T10:37:15.636Z,1.10
2023-02-19T10:39:44.642Z,2.33
2023-02-19T10:42:22.861Z,2.05
2023-02-19T10:45:01.858Z,1.23
2023-02-19T10:47:31.399Z,3.88
2023-02-19T10:50:02.585Z,2.15
2023-02-19T10:52:36.728Z,1.65
2023-02-19T10:55:26.436Z,1.08
2023-02-19T10:57:53.102Z,1.05
2023-02-19T11:00:30.388Z,1.52
2023-02-19T11:03:18.362Z,2.45
2023-02-19T11:05:56.638Z,2.50
2023-02-19T11:08:24.336Z,2.47
2023-02-19T11:10:51.160Z,2.00
2023-02-19T11:13:32.270Z,3.53
2023-02-19T11:16:00.234Z,2.83
2023-02-19T11:18:36.218Z,1.90
2023-02-19T11:21:06.101Z,2.08
2023-02-19T11:23:37.724Z,1.98
2023-02-19T11:26:15.961Z,1.92
2023-02-19T11:28:43.407Z,3.13
2023-02-19T11:31:35.531Z,3.78
2023-02-19T11:34:12.212Z,4.43
2023-02-19T11:36:38.890Z,4.13
2023-02-19T11:39:17.673Z,2.03
2023-02-19T11:42:07.718Z,1.48
2023-02-19T11:44:38.005Z,1.80
2023-02-19T11:47:38.761Z,2.08
2023-02-19T11:50:32.908Z,1.75
2023-02-19T11:53:16.633Z,2.20
2023-02-19T11:55:46.294Z,2.75
2023-02-19T11:58:34.875Z,2.13
2023-02-19T12:01:17.355Z,4.63
2023-02-19T12:06:45.009Z,3.53
2023-02-19T12:09:33.559Z,1.63
2023-02-19T12:12:15.518Z,2.83
2023-02-19T12:15:20.520Z,2.03
2023-02-19T12:18:11.962Z,1.98
2023-02-19T12:20:41.608Z,2.35
2023-02-19T12:23:59.468Z,2.03
2023-02-19T12:27:14.112Z,1.40
2023-02-19T12:29:52.219Z,2.10
2023-02-19T12:32:40.737Z,2.33
2023-02-19T12:35:43.291Z,3.55
2023-02-19T12:38:41.391Z,2.70
2023-02-19T12:41:16.194Z,1.60
2023-02-19T12:44:38.754Z,2.05
2023-02-19T12:47:08.736Z,4.72
2023-02-19T12:49:40.464Z,2.08
2023-02-19T12:52:12.888Z,2.65
2023-02-19T12:54:44.180Z,3.15
2023-02-19T12:57:18.644Z,2.92
2023-02-19T13:00:00.288Z,2.88
2023-02-19T13:02:33.473Z,1.27
2023-02-19T13:05:15.342Z,2.45
2023-02-19T13:07:57.717Z,1.90
2023-02-19T13:10:43.393Z,2.15
2023-02-19T13:13:27.901Z,2.17
2023-02-19T13:15:58.982Z,0.93
2023-02-19T13:18:40.036Z,1.13
2023-02-19T13:21:07.664Z,3.55
2023-02-19T13:23:59.674Z,1.27
2023-02-19T13:26:29.790Z,1.92
2023-02-19T13:29:27.335Z,10.73
2023-02-19T13:31:56.900Z,8.00
2023-02-19T13:34:38.873Z,1.95
2023-02-19T13:37:06.381Z,4.18
2023-02-19T13:39:34.303Z,2.30
2023-02-19T13:42:01.251Z,3.75
2023-02-19T13:44:31.145Z,2.33
2023-02-19T13:46:58.652Z,4.32
2023-02-19T13:49:40.472Z,1.33
2023-02-19T13:52:19.388Z,3.40
2023-02-19T13:54:46.039Z,1.60
2023-02-19T13:57:22.296Z,1.33
2023-02-19T13:59:50.026Z,5.60
2023-02-19T14:02:22.721Z,2.75
2023-02-19T14:05:00.146Z,2.70
2023-02-19T14:07:26.867Z,3.80
2023-02-19T14:09:54.762Z,4.95
2023-02-19T14:12:22.735Z,2.15
2023-02-19T14:14:50.386Z,2.78
2023-02-19T14:17:40.024Z,4.93
2023-02-19T14:20:09.782Z,4.25
2023-02-19T14:22:46.455Z,3.03
2023-02-19T14:25:31.422Z,3.22
2023-02-19T14:28:04.947Z,1.55
2023-02-19T14:30:34.046Z,3.22
2023-02-19T14:33:10.629Z,2.90
2023-02-19T14:35:41.729Z,4.15
2023-02-19T14:38:23.884Z,2.15
2023-02-19T14:40:53.188Z,2.25
2023-02-19T14:43:22.129Z,4.13
2023-02-19T14:45:57.805Z,2.97
2023-02-19T14:48:41.619Z,0.73
2023-02-19T14:51:16.373Z,2.33
2023-02-19T14:53:45.203Z,2.45
2023-02-19T14:56:22.049Z,1.52
2023-02-19T14:59:11.164Z,3.00
2023-02-19T15:01:38.059Z,3.97
2023-02-19T15:04:06.304Z,1.35
2023-02-19T15:06:36.071Z,2.80
2023-02-19T15:09:07.119Z,1.73
2023-02-19T15:11:35.254Z,3.42
2023-02-19T15:14:07.907Z,3.65
2023-02-19T15:16:36.389Z,2.42
2023-02-19T15:19:07.918Z,1.73
2023-02-19T15:21:38.067Z,5.97
2023-02-19T15:24:06.958Z,3.80
2023-02-19T15:26:42.836Z,2.55
2023-02-19T15:29:11.979Z,5.68
2023-02-19T15:31:49.167Z,1.92
2023-02-19T15:34:30.331Z,1.50
2023-02-19T15:37:00.243Z,1.98
2023-02-19T15:39:34.860Z,2.35
2023-02-19T15:42:05.074Z,3.35
2023-02-19T15:44:38.288Z,2.63
2023-02-19T15:47:12.828Z,4.07
2023-02-19T15:49:48.917Z,3.22
2023-02-19T15:52:40.363Z,3.58
2023-02-19T15:55:31.568Z,2.80
2023-02-19T15:58:09.175Z,3.05
2023-02-19T16:00:56.083Z,3.63
2023-02-19T16:03:25.866Z,2.17
2023-02-19T16:06:14.120Z,5.78
2023-02-19T16:09:04.616Z,3.47
2023-02-19T16:11:51.076Z,6.20
2023-02-19T16:14:26.791Z,3.17
2023-02-19T16:17:16.662Z,3.90
2023-02-19T16:19:43.524Z,4.78
2023-02-19T16:22:12.712Z,2.75
2023-02-19T16:24:46.262Z,4.68
2023-02-19T16:27:14.624Z,4.15
2023-02-19T16:29:41.501Z,3.63
2023-02-19T16:32:17.141Z,3.53
2023-02-19T16:34:50.547Z,2.75
2023-02-19T16:37:40.807Z,3.63
2023-02-19T16:40:07.620Z,4.65
2023-02-19T16:42:48.898Z,4.18
2023-02-19T16:45:16.851Z,4.40
2023-02-19T16:47:51.390Z,4.20
2023-02-19T16:50:21.848Z,2.92
2023-02-19T16:52:58.917Z,3.88
2023-02-19T16:55:26.555Z,3.92
2023-02-19T16:57:53.473Z,3.45
2023-02-19T17:00:29.312Z,3.17
2023-02-19T17:02:59.691Z,2.78
2023-02-19T17:05:29.145Z,3.63
2023-02-19T17:07:55.804Z,2.38
2023-02-19T17:10:24.975Z,3.25
2023-02-19T17:12:54.672Z,3.90
2023-02-19T17:15:22.652Z,3.70
2023-02-19T17:17:49.936Z,3.30
2023-02-19T17:20:28.156Z,3.20
2023-02-19T17:22:55.956Z,3.22
2023-02-19T17:25:23.357Z,2.47
2023-02-19T17:27:50.093Z,3.47
2023-02-19T17:30:26.804Z,4.80
2023-02-19T17:32:53.526Z,3.10
2023-02-19T17:35:20.389Z,4.25
2023-02-19T17:37:47.334Z,2.83
2023-02-19T17:40:32.317Z,4.18
2023-02-19T17:42:59.990Z,4.38
2023-02-19T17:45:26.698Z,5.07
2023-02-19T17:47:53.451Z,4.43
2023-02-19T17:50:23.041Z,4.05
2023-02-19T17:52:49.694Z,3.90
2023-02-19T17:55:18.464Z,4.18
2023-02-19T17:57:46.342Z,4.03
2023-02-19T18:00:18.265Z,5.38
2023-02-19T18:02:45.113Z,3.88
2023-02-19T18:05:12.012Z,5.20
2023-02-19T18:07:38.967Z,4.00
2023-02-19T18:10:07.047Z,3.33
2023-02-19T18:12:33.737Z,5.13
2023-02-19T18:15:00.466Z,3.20
2023-02-19T18:17:27.334Z,5.65
2023-02-19T18:19:54.305Z,4.07
2023-02-19T18:22:21.429Z,2.67
2023-02-19T18:24:50.026Z,3.40
2023-02-19T18:27:19.025Z,4.72
2023-02-19T18:29:51.714Z,2.00
2023-02-19T18:32:20.130Z,2.70
2023-02-19T18:34:51.366Z,2.88
2023-02-19T18:37:18.406Z,3.55
2023-02-19T18:39:45.192Z,6.70
2023-02-19T18:42:12.934Z,4.35
2023-02-19T18:44:39.808Z,4.70
2023-02-19T18:47:07.765Z,5.63
2023-02-19T18:49:34.634Z,3.20
2023-02-19T18:52:01.984Z,5.25
2023-02-19T18:54:29.654Z,4.13
2023-02-19T18:56:56.643Z,3.03
2023-02-19T18:59:23.980Z,5.35
2023-02-19T19:01:51.471Z,3.33
2023-02-19T19:04:18.203Z,5.93
2023-02-19T19:06:44.902Z,3.45
2023-02-19T19:09:11.545Z,4.22
2023-02-19T19:11:38.551Z,3.63
2023-02-19T19:14:05.172Z,3.03
2023-02-19T19:16:31.836Z,6.47
2023-02-19T19:18:58.620Z,4.63
2023-02-19T19:21:25.450Z,4.78
2023-02-19T19:23:52.157Z,5.00
2023-02-19T19:26:18.804Z,3.63
2023-02-19T19:28:46.534Z,5.50
2023-02-19T19:31:15.714Z,5.57
2023-02-19T19:33:43.425Z,3.78
2023-02-19T19:36:11.346Z,5.50
2023-02-19T19:38:38.146Z,3.13
2023-02-19T19:41:05.464Z,5.57
2023-02-19T19:43:33.701Z,4.97
2023-02-19T19:46:03.183Z,2.85
2023-02-19T19:48:29.953Z,3.15
2023-02-19T19:50:57.200Z,4.45
2023-02-19T19:53:24.663Z,4.85
2023-02-19T19:55:51.572Z,2.30
2023-02-19T19:58:22.781Z,5.55
2023-02-19T20:00:49.414Z,3.90
2023-02-19T20:03:16.063Z,2.97
2023-02-19T20:05:42.702Z,3.53
2023-02-19T20:08:09.342Z,4.57
2023-02-19T20:10:35.969Z,4.55
2023-02-19T20:13:02.649Z,5.65
2023-02-19T20:15:29.280Z,5.80
2023-02-19T20:17:56.085Z,6.40
2023-02-19T20:20:22.912Z,4.75
2023-02-19T20:22:53.343Z,6.90
2023-02-19T20:25:22.436Z,4.65
2023-02-19T20:27:51.080Z,5.82
2023-02-19T20:30:20.961Z,5.68
2023-02-19T20:32:47.728Z,5.03
2023-02-19T20:35:16.460Z,6.25
2023-02-19T20:37:47.912Z,3.28
2023-02-19T20:40:16.979Z,5.53
2023-02-19T20:42:43.725Z,6.47
2023-02-19T20:45:10.352Z,6.97
2023-02-19T20:47:39.568Z,6.55
2023-02-19T20:50:07.180Z,7.85
2023-02-19T20:52:33.881Z,7.95
2023-02-19T20:55:00.585Z,3.42
2023-02-19T20:57:27.323Z,3.58
2023-02-19T20:59:53.946Z,5.93
2023-02-19T21:02:29.198Z,5.20
2023-02-19T21:04:56.844Z,4.32
2023-02-19T21:07:25.189Z,7.25
2023-02-19T21:09:52.192Z,4.75
2023-02-19T21:12:21.066Z,7.68
2023-02-19T21:14:47.854Z,4.63
2023-02-19T21:17:14.967Z,5.43
2023-02-19T21:19:41.784Z,6.78
2023-02-19T21:22:08.608Z,5.07
2023-02-19T21:24:35.282Z,4.65
2023-02-19T21:27:01.980Z,4.15
2023-02-19T21:29:28.672Z,5.63
2023-02-19T21:31:58.369Z,5.88
2023-02-19T21:34:28.319Z,5.43
2023-02-19T21:36:56.017Z,5.28
2023-02-19T21:39:24.817Z,6.22
2023-02-19T21:41:51.542Z,3.33
2023-02-19T21:44:18.989Z,5.15
2023-02-19T21:46:45.645Z,5.70
2023-02-19T21:49:13.142Z,3.85
2023-02-19T21:51:41.706Z,5.90
2023-02-19T21:54:13.321Z,8.02
2023-02-19T21:56:39.992Z,4.63
2023-02-19T21:59:06.713Z,4.75
2023-02-19T22:01:40.523Z,7.65
2023-02-19T22:04:08.668Z,5.32
2023-02-19T22:06:35.747Z,4.43
2023-02-19T22:09:02.396Z,5.85
2023-02-19T22:11:29.263Z,8.90
2023-02-19T22:13:56.094Z,4.82
2023-02-19T22:16:23.061Z,7.60
2023-02-19T22:18:54.421Z,3.88
2023-02-19T22:21:22.510Z,3.25
2023-02-19T22:23:51.241Z,4.00
2023-02-19T22:26:45.024Z,7.05
2023-02-19T22:29:14.520Z,4.70
2023-02-19T22:31:41.543Z,5.57
2023-02-19T22:34:09.086Z,7.55
2023-02-19T22:36:39.813Z,7.85
2023-02-19T22:39:08.715Z,4.15
2023-02-19T22:41:35.588Z,4.53
2023-02-19T22:44:02.710Z,3.38
2023-02-19T22:46:31.253Z,2.83
2023-02-19T22:48:58.842Z,4.55
2023-02-19T22:51:26.386Z,4.20
2023-02-19T22:53:55.344Z,2.95
2023-02-19T22:56:24.266Z,7.80
2023-02-19T22:58:52.179Z,3.20
2023-02-19T23:01:19.428Z,4.70
2023-02-19T23:03:48.385Z,8.90
2023-02-19T23:06:17.339Z,6.43
2023-02-19T23:08:44.551Z,6.50
2023-02-19T23:11:12.466Z,5.50
2023-02-19T23:13:42.521Z,5.07
2023-02-19T23:16:09.512Z,3.10
2023-02-19T23:18:36.407Z,5.60
2023-02-19T23:21:03.047Z,3.17
2023-02-19T23:23:29.687Z,6.10
2023-02-19T23:25:56.307Z,5.80
2023-02-19T23:28:23.437Z,4.35
2023-02-19T23:30:50.421Z,7.65
2023-02-19T23:33:17.606Z,6.13
2023-02-19T23:35:44.399Z,4.53
2023-02-19T23:38:11.101Z,5.20
2023-02-19T23:40:37.834Z,5.35
2023-02-19T23:43:04.645Z,8.65
2023-02-19T23:45:31.331Z,5.28
2023-02-19T23:47:58.088Z,4.45
2023-02-19T23:50:25.092Z,4.55
2023-02-19T23:52:51.754Z,6.65
2023-02-19T23:55:18.478Z,4.28
2023-02-19T23:57:45.123Z,5.45
